createdAt,value
2018-07-24T20:19:31.326Z,60.30
2018-07-24T20:24:34.637Z,61.40
2018-07-24T20:29:37.785Z,61.00
2018-07-24T20:34:40.962Z,60.70
2018-07-24T20:39:44.118Z,60.50
2018-07-24T20:44:47.370Z,60.70
2018-07-24T20:49:50.527Z,60.30
2018-07-24T20:54:53.695Z,60.70
2018-07-24T20:59:56.851Z,61.30
2018-07-24T21:05:00.019Z,62.00
2018-07-24T21:10:03.298Z,62.70
2018-07-24T21:15:06.464Z,63.50
2018-07-24T21:20:09.638Z,64.10
2018-07-24T21:25:12.807Z,64.70
2018-07-24T21:30:15.978Z,65.30
2018-07-24T21:35:19.158Z,65.30
2018-07-24T21:40:22.330Z,65.50
2018-07-24T21:45:25.522Z,65.50
2018-07-24T21:50:28.682Z,66.00
2018-07-24T21:55:31.846Z,66.60
2018-07-24T22:00:36.370Z,66.60
2018-07-24T22:05:39.513Z,66.20
2018-07-24T22:10:42.675Z,66.60
2018-07-24T22:15:45.830Z,66.90
2018-07-24T22:20:49.191Z,66.80
2018-07-24T22:25:52.360Z,67.20
2018-07-24T22:30:55.498Z,67.30
2018-07-24T22:35:58.661Z,67.20
2018-07-24T22:41:01.833Z,67.00
2018-07-24T22:46:05.126Z,66.90
2018-07-24T22:51:08.289Z,67.10
2018-07-24T22:56:11.631Z,67.70
2018-07-24T23:01:14.791Z,68.10
2018-07-24T23:06:17.942Z,68.30
2018-07-24T23:16:24.087Z,69.00
2018-07-24T23:21:27.242Z,69.40
2018-07-24T23:26:30.402Z,69.50
2018-07-24T23:31:33.573Z,69.80
2018-07-24T23:36:36.746Z,70.10
2018-07-24T23:41:40.043Z,70.00
2018-07-24T23:46:43.242Z,70.10
2018-07-24T23:51:46.345Z,70.60
2018-07-24T23:56:49.505Z,71.30
